Station Historical Data
Daily Summary for September 16, 2017 Units:  English    Metric   Both
« Previous Day
Next Day »
Daily Weekly Monthly Yearly Custom
  High: Low: Average:
Temperature: 75.4 °F 57.6 °F 65.4 °F
Dew Point: 54.6 °F 38.6 °F 47.4 °F
Humidity: 75 % 38 % 53 %
Wind Speed: 13.0 mph 0.0 mph 1.5 mph
Wind Gust: 16.0 mph - -
Wind:- - South
Pressure: 29.95 in 29.87 in -
Precipitation: 0.00 in    
Historical Graphs
 
 
Tabular Data for September 16, 2017
Time Temperature Dew Point Pressure Wind Wind Speed Wind Gust Humidity Rainfall Rate (Hourly) solar
00:00 60.8 °F 52.5 °F 29.89 in Calm   4.0 mph 74 % 0.00 in 0.00 W/m2
00:05 60.8 °F 52.5 °F 29.90 in Calm   1.0 mph 74 % 0.00 in 0.00 W/m2
00:10 60.7 °F 52.4 °F 29.89 in Calm   3.0 mph 74 % 0.00 in 0.00 W/m2
00:15 60.6 °F 52.3 °F 29.89 in Calm     74 % 0.00 in 0.00 W/m2
00:20 60.5 °F 52.2 °F 29.89 in Calm   1.0 mph 74 % 0.00 in 0.00 W/m2
00:25 60.4 °F 52.5 °F 29.89 in Calm     75 % 0.00 in 0.00 W/m2
00:30 60.3 °F 52.0 °F 29.89 in Calm     74 % 0.00 in 0.00 W/m2
00:35 60.3 °F 52.0 °F 29.89 in West 3.0 mph 3.0 mph 74 % 0.00 in 0.00 W/m2
00:40 60.2 °F 51.5 °F 29.89 in West 2.0 mph 3.0 mph 73 % 0.00 in 0.00 W/m2
00:45 60.2 °F 51.5 °F 29.89 in Calm   3.0 mph 73 % 0.00 in 0.00 W/m2
00:51 60.2 °F 51.5 °F 29.89 in Calm   1.0 mph 73 % 0.00 in 0.00 W/m2
00:56 60.1 °F 51.8 °F 29.89 in Calm   1.0 mph 74 % 0.00 in 0.00 W/m2
01:01 60.1 °F 51.8 °F 29.89 in West 2.0 mph 2.0 mph 74 % 0.00 in 0.00 W/m2
01:06 60.0 °F 51.7 °F 29.89 in Calm   4.0 mph 74 % 0.00 in 0.00 W/m2
01:11 59.9 °F 51.6 °F 29.89 in Calm     74 % 0.00 in 0.00 W/m2
01:16 59.9 °F 51.6 °F 29.89 in Calm     74 % 0.00 in 0.00 W/m2
01:21 59.7 °F 51.4 °F 29.89 in Calm     74 % 0.00 in 0.00 W/m2
01:26 59.7 °F 51.4 °F 29.89 in Calm     74 % 0.00 in 0.00 W/m2
01:31 59.6 °F 50.6 °F 29.88 in Calm     72 % 0.00 in 0.00 W/m2
01:36 59.5 °F 50.8 °F 29.88 in Calm     73 % 0.00 in 0.00 W/m2
01:41 59.5 °F 50.8 °F 29.88 in Calm     73 % 0.00 in 0.00 W/m2
01:46 59.6 °F 50.6 °F 29.88 in West 1.0 mph 3.0 mph 72 % 0.00 in 0.00 W/m2
01:51 59.6 °F 50.2 °F 29.88 in Calm     71 % 0.00 in 0.00 W/m2
01:56 59.6 °F 49.8 °F 29.88 in West 2.0 mph 2.0 mph 70 % 0.00 in 0.00 W/m2
02:01 59.6 °F 48.6 °F 29.88 in Calm     67 % 0.00 in 0.00 W/m2
02:06 59.6 °F 48.6 °F 29.88 in Calm     67 % 0.00 in 0.00 W/m2
02:11 59.6 °F 47.4 °F 29.88 in Calm     64 % 0.00 in 0.00 W/m2
02:16 59.6 °F 46.6 °F 29.88 in West 1.0 mph 2.0 mph 62 % 0.00 in 0.00 W/m2
02:21 59.6 °F 46.6 °F 29.88 in Calm     62 % 0.00 in 0.00 W/m2
02:26 59.5 °F 45.2 °F 29.88 in Calm     59 % 0.00 in 0.00 W/m2
02:31 59.5 °F 45.6 °F 29.88 in WNW 3.0 mph 4.0 mph 60 % 0.00 in 0.00 W/m2
02:36 59.5 °F 45.2 °F 29.88 in WNW 3.0 mph 4.0 mph 59 % 0.00 in 0.00 W/m2
02:41 59.5 °F 45.2 °F 29.88 in Calm     59 % 0.00 in 0.00 W/m2
02:46 59.5 °F 42.9 °F 29.88 in Calm     54 % 0.00 in 0.00 W/m2
02:51 59.5 °F 42.4 °F 29.88 in Calm     53 % 0.00 in 0.00 W/m2
02:56 59.6 °F 42.5 °F 29.88 in WNW 2.0 mph 2.0 mph 53 % 0.00 in 0.00 W/m2
03:01 59.6 °F 42.5 °F 29.88 in Calm     53 % 0.00 in 0.00 W/m2
03:06 59.7 °F 42.1 °F 29.88 in Calm     52 % 0.00 in 0.00 W/m2
03:11 59.7 °F 42.1 °F 29.88 in Calm     52 % 0.00 in 0.00 W/m2
03:16 59.8 °F 42.2 °F 29.88 in Calm     52 % 0.00 in 0.00 W/m2
03:21 59.8 °F 41.7 °F 29.88 in Calm     51 % 0.00 in 0.00 W/m2
03:26 59.7 °F 41.6 °F 29.88 in Calm     51 % 0.00 in 0.00 W/m2
03:31 59.7 °F 42.1 °F 29.88 in Calm     52 % 0.00 in 0.00 W/m2
03:36 59.6 °F 41.5 °F 29.88 in Calm     51 % 0.00 in 0.00 W/m2
03:41 59.5 °F 41.4 °F 29.88 in Calm     51 % 0.00 in 0.00 W/m2
03:46 59.5 °F 41.4 °F 29.88 in Calm     51 % 0.00 in 0.00 W/m2
03:51 59.4 °F 41.3 °F 29.88 in Calm     51 % 0.00 in 0.00 W/m2
03:56 59.4 °F 41.3 °F 29.88 in Calm     51 % 0.00 in 0.00 W/m2
04:01 59.4 °F 40.8 °F 29.88 in WNW 4.0 mph 5.0 mph 50 % 0.00 in 0.00 W/m2
04:06 59.3 °F 40.7 °F 29.88 in Calm     50 % 0.00 in 0.00 W/m2
04:08 59.3 °F 40.7 °F 29.88 in Calm   1.0 mph 50 % 0.00 in 0.00 W/m2
04:13 59.2 °F 40.6 °F 29.88 in WNW 2.0 mph 4.0 mph 50 % 0.00 in 0.00 W/m2
04:18 59.1 °F 41.5 °F 29.88 in Calm     52 % 0.00 in 0.00 W/m2
04:23 59.0 °F 41.9 °F 29.88 in Calm   1.0 mph 53 % 0.00 in 0.00 W/m2
04:28 58.9 °F 41.3 °F 29.89 in Calm   1.0 mph 52 % 0.00 in 0.00 W/m2
04:33 58.8 °F 41.2 °F 29.88 in WNW 3.0 mph 5.0 mph 52 % 0.00 in 0.00 W/m2
04:38 58.7 °F 41.6 °F 29.88 in Calm   5.0 mph 53 % 0.00 in 0.00 W/m2
04:43 58.6 °F 41.5 °F 29.88 in NW 3.0 mph 5.0 mph 53 % 0.00 in 0.00 W/m2
04:48 58.5 °F 41.5 °F 29.88 in NNW 5.0 mph 6.0 mph 53 % 0.00 in 0.00 W/m2
04:53 58.4 °F 41.3 °F 29.88 in NNE 5.0 mph 6.0 mph 53 % 0.00 in 0.00 W/m2
04:58 58.2 °F 40.7 °F 29.88 in NNE 3.0 mph 5.0 mph 52 % 0.00 in 0.00 W/m2
05:03 58.1 °F 39.6 °F 29.88 in NNE 2.0 mph 5.0 mph 50 % 0.00 in 0.00 W/m2
05:08 58.1 °F 39.1 °F 29.88 in NNE 2.0 mph 7.0 mph 49 % 0.00 in 0.00 W/m2
05:13 58.1 °F 39.6 °F 29.88 in Calm     50 % 0.00 in 0.00 W/m2
05:18 58.2 °F 39.2 °F 29.89 in Calm     49 % 0.00 in 0.00 W/m2
05:23 58.3 °F 39.8 °F 29.89 in Calm     50 % 0.00 in 0.00 W/m2
05:28 58.4 °F 40.4 °F 29.89 in Calm     51 % 0.00 in 0.00 W/m2
05:33 58.5 °F 39.4 °F 29.89 in NNE 3.0 mph 3.0 mph 49 % 0.00 in 0.00 W/m2
05:38 58.6 °F 39.5 °F 29.89 in Calm     49 % 0.00 in 0.00 W/m2
05:43 58.6 °F 39.5 °F 29.90 in Calm     49 % 0.00 in 0.00 W/m2
05:48 58.6 °F 39.0 °F 29.90 in Calm     48 % 0.00 in 0.00 W/m2
05:53 58.6 °F 39.0 °F 29.90 in NNE 3.0 mph 4.0 mph 48 % 0.00 in 0.00 W/m2
05:58 58.5 °F 39.4 °F 29.90 in NNE 3.0 mph 5.0 mph 49 % 0.00 in 0.00 W/m2
06:03 58.3 °F 39.2 °F 29.90 in NNE 1.0 mph 6.0 mph 49 % 0.00 in 0.00 W/m2
06:08 58.2 °F 39.2 °F 29.90 in NE 4.0 mph 7.0 mph 49 % 0.00 in 0.00 W/m2
06:13 58.0 °F 39.0 °F 29.90 in ENE 1.0 mph 7.0 mph 49 % 0.00 in 0.00 W/m2
06:18 58.0 °F 39.5 °F 29.91 in Calm   1.0 mph 50 % 0.00 in 0.00 W/m2
06:23 58.0 °F 39.5 °F 29.91 in Calm   3.0 mph 50 % 0.00 in 0.00 W/m2
06:28 57.9 °F 39.4 °F 29.91 in ENE 1.0 mph 4.0 mph 50 % 0.00 in 0.00 W/m2
06:33 57.9 °F 38.9 °F 29.91 in Calm     49 % 0.00 in 0.00 W/m2
06:38 57.9 °F 39.4 °F 29.91 in Calm     50 % 0.00 in 0.00 W/m2
06:43 57.9 °F 39.4 °F 29.91 in Calm   2.0 mph 50 % 0.00 in 5.00 W/m2
06:48 57.8 °F 39.3 °F 29.91 in Calm     50 % 0.00 in 7.00 W/m2
06:53 57.8 °F 38.8 °F 29.92 in Calm   4.0 mph 49 % 0.00 in 11.00 W/m2
06:58 57.7 °F 38.7 °F 29.92 in Calm   5.0 mph 49 % 0.00 in 16.00 W/m2
07:03 57.7 °F 38.7 °F 29.92 in ENE 1.0 mph 6.0 mph 49 % 0.00 in 19.00 W/m2
07:08 57.6 °F 38.6 °F 29.92 in East 6.0 mph 8.0 mph 49 % 0.00 in 28.00 W/m2
07:13 57.6 °F 38.6 °F 29.92 in East 7.0 mph 10.0 mph 49 % 0.00 in 30.00 W/m2
07:18 57.6 °F 39.1 °F 29.92 in East 5.0 mph 8.0 mph 50 % 0.00 in 39.00 W/m2
07:23 57.7 °F 38.7 °F 29.92 in East 9.0 mph 9.0 mph 49 % 0.00 in 58.00 W/m2
07:28 57.8 °F 38.8 °F 29.92 in ESE 13.0 mph 16.0 mph 49 % 0.00 in 60.00 W/m2
07:33 58.0 °F 39.0 °F 29.92 in ESE 7.0 mph 16.0 mph 49 % 0.00 in 54.00 W/m2
07:38 58.1 °F 39.1 °F 29.92 in ESE 4.0 mph 15.0 mph 49 % 0.00 in 104.00 W/m2
07:43 58.2 °F 39.2 °F 29.93 in ESE 8.0 mph 9.0 mph 49 % 0.00 in 107.00 W/m2
07:48 58.4 °F 39.3 °F 29.93 in SE 6.0 mph 12.0 mph 49 % 0.00 in 120.00 W/m2
07:53 58.5 °F 39.4 °F 29.93 in ESE 6.0 mph 13.0 mph 49 % 0.00 in 125.00 W/m2
07:58 58.6 °F 39.5 °F 29.93 in SE 4.0 mph 8.0 mph 49 % 0.00 in 183.00 W/m2
08:03 58.7 °F 40.1 °F 29.93 in Calm   8.0 mph 50 % 0.00 in 207.00 W/m2
08:08 58.8 °F 40.7 °F 29.93 in SE 1.0 mph 9.0 mph 51 % 0.00 in 227.00 W/m2
08:13 58.9 °F 40.8 °F 29.93 in ESE 2.0 mph 9.0 mph 51 % 0.00 in 176.00 W/m2
08:18 59.1 °F 41.0 °F 29.93 in ESE 6.0 mph 7.0 mph 51 % 0.00 in 218.00 W/m2
08:24 59.2 °F 41.6 °F 29.93 in ESE 8.0 mph 9.0 mph 52 % 0.00 in 216.00 W/m2
08:28 59.4 °F 41.3 °F 29.93 in ESE 4.0 mph 7.0 mph 51 % 0.00 in 142.00 W/m2
08:34 59.5 °F 41.4 °F 29.93 in East 2.0 mph 9.0 mph 51 % 0.00 in 330.00 W/m2
08:39 59.7 °F 42.1 °F 29.93 in ESE 8.0 mph 12.0 mph 52 % 0.00 in 313.00 W/m2
08:44 59.9 °F 42.2 °F 29.94 in East 6.0 mph 9.0 mph 52 % 0.00 in 334.00 W/m2
08:49 60.2 °F 42.5 °F 29.94 in Calm   7.0 mph 52 % 0.00 in 288.00 W/m2
08:54 60.6 °F 42.9 °F 29.94 in East 4.0 mph 9.0 mph 52 % 0.00 in 301.00 W/m2
08:59 60.9 °F 44.2 °F 29.94 in East 8.0 mph 8.0 mph 54 % 0.00 in 399.00 W/m2
09:04 61.2 °F 43.5 °F 29.94 in East 5.0 mph 9.0 mph 52 % 0.00 in 415.00 W/m2
09:09 61.5 °F 43.7 °F 29.94 in East 5.0 mph 8.0 mph 52 % 0.00 in 388.00 W/m2
09:14 61.7 °F 43.9 °F 29.94 in Calm   5.0 mph 52 % 0.00 in 404.00 W/m2
09:19 62.0 °F 43.7 °F 29.94 in ESE 4.0 mph 9.0 mph 51 % 0.00 in 439.00 W/m2
09:24 62.3 °F 44.5 °F 29.94 in Calm   11.0 mph 52 % 0.00 in 468.00 W/m2
09:29 62.7 °F 44.3 °F 29.94 in Calm   7.0 mph 51 % 0.00 in 411.00 W/m2
09:34 63.1 °F 43.7 °F 29.94 in Calm   7.0 mph 49 % 0.00 in 390.00 W/m2
09:40 63.5 °F 43.5 °F 29.94 in Calm   8.0 mph 48 % 0.00 in 364.00 W/m2
09:45 63.9 °F 43.8 °F 29.94 in ESE 6.0 mph 6.0 mph 48 % 0.00 in 476.00 W/m2
09:50 64.3 °F 44.2 °F 29.94 in Calm   7.0 mph 48 % 0.00 in 557.00 W/m2
09:55 64.7 °F 45.1 °F 29.95 in Calm   6.0 mph 49 % 0.00 in 540.00 W/m2
10:00 65.1 °F 46.5 °F 29.94 in Calm   6.0 mph 51 % 0.00 in 508.00 W/m2
10:05 65.4 °F 46.3 °F 29.94 in Calm   5.0 mph 50 % 0.00 in 559.00 W/m2
10:10 65.7 °F 45.5 °F 29.94 in Calm   2.0 mph 48 % 0.00 in 582.00 W/m2
10:15 66.1 °F 44.2 °F 29.95 in Calm   2.0 mph 45 % 0.00 in 468.00 W/m2
10:20 66.5 °F 44.5 °F 29.95 in ESE 1.0 mph 6.0 mph 45 % 0.00 in 570.00 W/m2
10:25 67.0 °F 44.4 °F 29.95 in Calm   8.0 mph 44 % 0.00 in 568.00 W/m2
10:30 67.4 °F 43.5 °F 29.95 in South 2.0 mph 5.0 mph 42 % 0.00 in 601.00 W/m2
10:35 67.7 °F 44.4 °F 29.94 in South 2.0 mph 3.0 mph 43 % 0.00 in 439.00 W/m2
10:40 68.0 °F 42.8 °F 29.94 in South 5.0 mph 5.0 mph 40 % 0.00 in 555.00 W/m2
10:45 68.3 °F 43.1 °F 29.94 in South 1.0 mph 5.0 mph 40 % 0.00 in 733.00 W/m2
10:50 68.6 °F 43.3 °F 29.94 in Calm   5.0 mph 40 % 0.00 in 547.00 W/m2
10:55 68.9 °F 43.6 °F 29.94 in Calm   4.0 mph 40 % 0.00 in 796.00 W/m2
11:00 69.3 °F 44.0 °F 29.94 in Calm   5.0 mph 40 % 0.00 in 650.00 W/m2
11:05 69.8 °F 44.4 °F 29.94 in Calm   5.0 mph 40 % 0.00 in 686.00 W/m2
11:10 70.3 °F 45.5 °F 29.94 in SW 1.0 mph 6.0 mph 41 % 0.00 in 608.00 W/m2
11:15 70.7 °F 45.2 °F 29.94 in SW 5.0 mph 6.0 mph 40 % 0.00 in 761.00 W/m2
11:20 71.1 °F 44.9 °F 29.94 in SW 3.0 mph 5.0 mph 39 % 0.00 in 656.00 W/m2
11:25 71.4 °F 45.8 °F 29.94 in Calm   6.0 mph 40 % 0.00 in 747.00 W/m2
11:30 71.7 °F 46.8 °F 29.94 in SSW 5.0 mph 7.0 mph 41 % 0.00 in 745.00 W/m2
11:35 71.9 °F 45.6 °F 29.94 in South 4.0 mph 7.0 mph 39 % 0.00 in 795.00 W/m2
11:40 72.2 °F 46.6 °F 29.94 in Calm   7.0 mph 40 % 0.00 in 782.00 W/m2
11:45 72.6 °F 47.6 °F 29.94 in SW 3.0 mph 8.0 mph 41 % 0.00 in 668.00 W/m2
11:50 72.8 °F 46.4 °F 29.94 in West 2.0 mph 8.0 mph 39 % 0.00 in 497.00 W/m2
11:55 72.9 °F 47.2 °F 29.93 in West 4.0 mph 7.0 mph 40 % 0.00 in 661.00 W/m2
12:00 73.0 °F 47.9 °F 29.93 in West 1.0 mph 7.0 mph 41 % 0.00 in 819.00 W/m2
12:05 73.1 °F 48.7 °F 29.93 in Calm   5.0 mph 42 % 0.00 in 835.00 W/m2
12:10 73.5 °F 49.0 °F 29.93 in WSW 2.0 mph 7.0 mph 42 % 0.00 in 830.00 W/m2
12:15 73.7 °F 48.6 °F 29.93 in SW 3.0 mph 8.0 mph 41 % 0.00 in 526.00 W/m2
12:20 73.9 °F 48.7 °F 29.93 in Calm   7.0 mph 41 % 0.00 in 647.00 W/m2
12:25 74.0 °F 48.8 °F 29.93 in WSW 1.0 mph 7.0 mph 41 % 0.00 in 612.00 W/m2
12:30 74.1 °F 48.9 °F 29.93 in WSW 5.0 mph 8.0 mph 41 % 0.00 in 561.00 W/m2
12:35 74.2 °F 47.7 °F 29.93 in West 3.0 mph 6.0 mph 39 % 0.00 in 494.00 W/m2
12:40 73.9 °F 47.4 °F 29.93 in Calm   4.0 mph 39 % 0.00 in 522.00 W/m2
12:45 73.5 °F 47.7 °F 29.92 in WNW 1.0 mph 4.0 mph 40 % 0.00 in 664.00 W/m2
12:50 73.4 °F 48.9 °F 29.92 in WNW 3.0 mph 7.0 mph 42 % 0.00 in 759.00 W/m2
12:51 73.4 °F 48.9 °F 29.92 in Calm   6.0 mph 42 % 0.00 in 766.00 W/m2
12:56 73.6 °F 49.8 °F 29.92 in WNW 1.0 mph 7.0 mph 43 % 0.00 in 564.00 W/m2
13:01 73.8 °F 49.9 °F 29.92 in NW 2.0 mph 6.0 mph 43 % 0.00 in 629.00 W/m2
13:06 73.8 °F 49.9 °F 29.92 in West 3.0 mph 4.0 mph 43 % 0.00 in 642.00 W/m2
13:11 74.0 °F 50.7 °F 29.92 in Calm   4.0 mph 44 % 0.00 in 679.00 W/m2
13:16 74.1 °F 50.8 °F 29.92 in Calm   4.0 mph 44 % 0.00 in 508.00 W/m2
13:21 74.0 °F 49.5 °F 29.92 in West 1.0 mph 6.0 mph 42 % 0.00 in 598.00 W/m2
13:26 74.0 °F 48.8 °F 29.92 in Calm   2.0 mph 41 % 0.00 in 640.00 W/m2
13:31 74.0 °F 48.8 °F 29.91 in NW 1.0 mph 4.0 mph 41 % 0.00 in 350.00 W/m2
13:36 73.8 °F 48.0 °F 29.91 in Calm   1.0 mph 40 % 0.00 in 635.00 W/m2
13:41 73.8 °F 48.0 °F 29.91 in NW 4.0 mph 5.0 mph 40 % 0.00 in 666.00 W/m2
13:46 73.8 °F 48.0 °F 29.91 in NW 3.0 mph 4.0 mph 40 % 0.00 in 703.00 W/m2
13:51 74.1 °F 48.9 °F 29.91 in Calm     41 % 0.00 in 780.00 W/m2
13:57 74.5 °F 49.3 °F 29.91 in West 6.0 mph 7.0 mph 41 % 0.00 in 789.00 W/m2
14:02 74.9 °F 47.6 °F 29.91 in Calm     38 % 0.00 in 610.00 W/m2
14:07 75.2 °F 48.6 °F 29.91 in Calm   1.0 mph 39 % 0.00 in 763.00 W/m2
14:12 75.3 °F 48.7 °F 29.90 in WNW 1.0 mph 5.0 mph 39 % 0.00 in 768.00 W/m2
14:14 75.3 °F 48.0 °F 29.91 in West 1.0 mph 9.0 mph 38 % 0.00 in 802.00 W/m2
14:19 75.4 °F 48.0 °F 29.91 in Calm   3.0 mph 38 % 0.00 in 780.00 W/m2
14:24 75.3 °F 48.0 °F 29.90 in Calm   3.0 mph 38 % 0.00 in 591.00 W/m2
14:29 75.3 °F 49.3 °F 29.90 in WNW 1.0 mph 5.0 mph 40 % 0.00 in 445.00 W/m2
14:34 75.1 °F 47.8 °F 29.90 in Calm   4.0 mph 38 % 0.00 in 336.00 W/m2
14:39 74.9 °F 47.6 °F 29.90 in Calm     38 % 0.00 in 352.00 W/m2
14:44 74.8 °F 50.2 °F 29.90 in Calm   6.0 mph 42 % 0.00 in 485.00 W/m2
14:49 74.6 °F 51.3 °F 29.90 in Calm   4.0 mph 44 % 0.00 in 603.00 W/m2
14:54 74.7 °F 50.7 °F 29.90 in WNW 3.0 mph 5.0 mph 43 % 0.00 in 666.00 W/m2
14:59 74.6 °F 50.7 °F 29.90 in WNW 1.0 mph 5.0 mph 43 % 0.00 in 577.00 W/m2
15:04 74.6 °F 50.7 °F 29.89 in Calm   3.0 mph 43 % 0.00 in 367.00 W/m2
15:10 74.6 °F 50.7 °F 29.89 in Calm   4.0 mph 43 % 0.00 in 418.00 W/m2
15:15 74.6 °F 49.4 °F 29.89 in Calm   2.0 mph 41 % 0.00 in 299.00 W/m2
15:20 74.5 °F 49.9 °F 29.89 in Calm   1.0 mph 42 % 0.00 in 295.00 W/m2
15:25 74.4 °F 51.1 °F 29.89 in Calm   1.0 mph 44 % 0.00 in 476.00 W/m2
15:30 74.3 °F 51.0 °F 29.89 in WNW 3.0 mph 3.0 mph 44 % 0.00 in 330.00 W/m2
15:35 74.3 °F 51.6 °F 29.89 in West 5.0 mph 5.0 mph 45 % 0.00 in 508.00 W/m2
15:40 74.3 °F 51.6 °F 29.89 in WSW 5.0 mph 5.0 mph 45 % 0.00 in 248.00 W/m2
15:45 74.3 °F 52.2 °F 29.89 in Calm   5.0 mph 46 % 0.00 in 287.00 W/m2
15:50 74.0 °F 51.9 °F 29.89 in WSW 2.0 mph 7.0 mph 46 % 0.00 in 276.00 W/m2
15:55 73.9 °F 52.4 °F 29.89 in WSW 2.0 mph 3.0 mph 47 % 0.00 in 336.00 W/m2
16:00 73.8 °F 52.3 °F 29.89 in WSW 1.0 mph 7.0 mph 47 % 0.00 in 343.00 W/m2
16:05 73.8 °F 52.9 °F 29.89 in Calm   1.0 mph 48 % 0.00 in 302.00 W/m2
16:10 73.7 °F 53.4 °F 29.89 in Calm   2.0 mph 49 % 0.00 in 283.00 W/m2
16:15 73.6 °F 52.7 °F 29.88 in WSW 3.0 mph 4.0 mph 48 % 0.00 in 299.00 W/m2
16:20 73.5 °F 52.6 °F 29.88 in Calm   6.0 mph 48 % 0.00 in 264.00 W/m2
16:25 73.4 °F 52.5 °F 29.88 in Calm   5.0 mph 48 % 0.00 in 248.00 W/m2
16:30 73.2 °F 52.9 °F 29.88 in Calm   5.0 mph 49 % 0.00 in 234.00 W/m2
16:35 73.2 °F 52.9 °F 29.88 in Calm   4.0 mph 49 % 0.00 in 243.00 W/m2
16:40 73.1 °F 52.8 °F 29.88 in Calm   4.0 mph 49 % 0.00 in 278.00 W/m2
16:45 73.1 °F 53.4 °F 29.88 in Calm   4.0 mph 50 % 0.00 in 555.00 W/m2
16:50 73.1 °F 53.4 °F 29.88 in Calm   1.0 mph 50 % 0.00 in 334.00 W/m2
16:55 73.2 °F 53.5 °F 29.88 in Calm   6.0 mph 50 % 0.00 in 294.00 W/m2
17:00 73.3 °F 53.0 °F 29.88 in Calm     49 % 0.00 in 287.00 W/m2
17:05 73.3 °F 53.6 °F 29.88 in Calm   4.0 mph 50 % 0.00 in 501.00 W/m2
17:10 73.3 °F 53.6 °F 29.88 in Calm     50 % 0.00 in 438.00 W/m2
17:15 73.4 °F 53.1 °F 29.88 in Calm     49 % 0.00 in 360.00 W/m2
17:20 73.4 °F 53.1 °F 29.88 in Calm   1.0 mph 49 % 0.00 in 315.00 W/m2
17:25 73.5 °F 53.2 °F 29.88 in West 1.0 mph 1.0 mph 49 % 0.00 in 288.00 W/m2
17:30 73.5 °F 53.2 °F 29.88 in Calm   1.0 mph 49 % 0.00 in 265.00 W/m2
17:35 73.6 °F 52.7 °F 29.88 in Calm   2.0 mph 48 % 0.00 in 243.00 W/m2
17:40 73.5 °F 53.7 °F 29.87 in Calm   2.0 mph 50 % 0.00 in 220.00 W/m2
17:50 73.3 °F 54.6 °F 29.87 in Calm   1.0 mph 52 % 0.00 in 158.00 W/m2
17:55 73.1 °F 53.9 °F 29.88 in Calm   3.0 mph 51 % 0.00 in 151.00 W/m2
18:00 73.0 °F 53.8 °F 29.88 in Calm     51 % 0.00 in 149.00 W/m2
18:05 72.7 °F 54.1 °F 29.88 in Calm   1.0 mph 52 % 0.00 in 123.00 W/m2
18:10 72.6 °F 54.0 °F 29.88 in Calm   3.0 mph 52 % 0.00 in 91.00 W/m2
18:15 72.4 °F 54.3 °F 29.88 in Calm   1.0 mph 53 % 0.00 in 81.00 W/m2
18:20 72.3 °F 54.2 °F 29.88 in Calm   1.0 mph 53 % 0.00 in 90.00 W/m2
18:30 72.1 °F 53.5 °F 29.88 in Calm   2.0 mph 52 % 0.00 in 60.00 W/m2
18:35 72.0 °F 54.0 °F 29.88 in Calm   1.0 mph 53 % 0.00 in 46.00 W/m2
18:40 71.8 °F 54.3 °F 29.88 in Calm   1.0 mph 54 % 0.00 in 37.00 W/m2
18:45 71.4 °F 53.9 °F 29.87 in Calm     54 % 0.00 in 28.00 W/m2
18:50 71.1 °F 53.6 °F 29.87 in Calm   3.0 mph 54 % 0.00 in 21.00 W/m2
18:56 70.6 °F 53.7 °F 29.87 in Calm   4.0 mph 55 % 0.00 in 18.00 W/m2
19:00 70.1 °F 53.7 °F 29.87 in Calm     56 % 0.00 in 14.00 W/m2
19:06 69.5 °F 53.1 °F 29.87 in Calm     56 % 0.00 in 9.00 W/m2
19:10 69.2 °F 52.8 °F 29.87 in Calm   1.0 mph 56 % 0.00 in 7.00 W/m2
19:15 69.0 °F 53.2 °F 29.87 in West 3.0 mph 4.0 mph 57 % 0.00 in 5.00 W/m2
19:20 68.7 °F 52.9 °F 29.87 in West 2.0 mph 4.0 mph 57 % 0.00 in 0.00 W/m2
19:26 68.2 °F 52.9 °F 29.87 in West 2.0 mph 4.0 mph 58 % 0.00 in 0.00 W/m2
19:31 67.7 °F 52.4 °F 29.87 in Calm   3.0 mph 58 % 0.00 in 0.00 W/m2
19:36 67.2 °F 52.4 °F 29.88 in Calm   1.0 mph 59 % 0.00 in 0.00 W/m2
19:41 66.8 °F 52.0 °F 29.88 in Calm   4.0 mph 59 % 0.00 in 0.00 W/m2
19:46 66.4 °F 52.1 °F 29.88 in Calm   3.0 mph 60 % 0.00 in 0.00 W/m2
19:51 66.0 °F 51.7 °F 29.88 in Calm   1.0 mph 60 % 0.00 in 0.00 W/m2
19:56 65.7 °F 51.5 °F 29.88 in Calm     60 % 0.00 in 0.00 W/m2
20:01 65.6 °F 51.8 °F 29.88 in Calm     61 % 0.00 in 0.00 W/m2
20:06 65.5 °F 51.7 °F 29.88 in West 2.0 mph 3.0 mph 61 % 0.00 in 0.00 W/m2
20:14 65.3 °F 51.5 °F 29.88 in Calm   1.0 mph 61 % 0.00 in 0.00 W/m2
20:19 65.1 °F 51.8 °F 29.88 in Calm     62 % 0.00 in 0.00 W/m2
20:21 65.1 °F 51.8 °F 29.88 in Calm     62 % 0.00 in 0.00 W/m2
20:22 65.0 °F 51.7 °F 29.88 in Calm     62 % 0.00 in 0.00 W/m2
20:25 65.0 °F 51.7 °F 29.88 in Calm     62 % 0.00 in 0.00 W/m2
20:27 65.0 °F 51.7 °F 29.89 in Calm     62 % 0.00 in 0.00 W/m2
20:32 64.9 °F 51.6 °F 29.88 in Calm     62 % 0.00 in 0.00 W/m2
20:37 64.8 °F 51.5 °F 29.89 in Calm     62 % 0.00 in 0.00 W/m2
20:42 64.6 °F 51.7 °F 29.89 in Calm     63 % 0.00 in 0.00 W/m2
20:47 64.4 °F 51.5 °F 29.89 in Calm     63 % 0.00 in 0.00 W/m2
20:52 64.3 °F 51.9 °F 29.89 in Calm   1.0 mph 64 % 0.00 in 0.00 W/m2
20:57 64.2 °F 51.8 °F 29.89 in Calm     64 % 0.00 in 0.00 W/m2
21:02 64.1 °F 51.7 °F 29.89 in Calm     64 % 0.00 in 0.00 W/m2
21:07 64.0 °F 51.6 °F 29.89 in Calm     64 % 0.00 in 0.00 W/m2
21:13 63.9 °F 51.5 °F 29.89 in Calm     64 % 0.00 in 0.00 W/m2
21:18 63.8 °F 51.4 °F 29.89 in West 1.0 mph 2.0 mph 64 % 0.00 in 0.00 W/m2
21:23 63.8 °F 51.4 °F 29.89 in West 3.0 mph 4.0 mph 64 % 0.00 in 0.00 W/m2
21:28 63.7 °F 51.3 °F 29.90 in Calm   3.0 mph 64 % 0.00 in 0.00 W/m2
21:33 63.7 °F 51.3 °F 29.90 in Calm   3.0 mph 64 % 0.00 in 0.00 W/m2
21:38 63.6 °F 51.2 °F 29.90 in Calm   4.0 mph 64 % 0.00 in 0.00 W/m2
21:43 63.5 °F 51.1 °F 29.90 in SSW 5.0 mph 5.0 mph 64 % 0.00 in 0.00 W/m2
21:48 63.5 °F 51.1 °F 29.90 in South 2.0 mph 6.0 mph 64 % 0.00 in 0.00 W/m2
21:53 63.4 °F 51.4 °F 29.90 in SE 4.0 mph 7.0 mph 65 % 0.00 in 0.00 W/m2
21:58 63.4 °F 51.0 °F 29.90 in Calm   8.0 mph 64 % 0.00 in 0.00 W/m2
22:03 63.4 °F 51.0 °F 29.90 in ESE 5.0 mph 6.0 mph 64 % 0.00 in 0.00 W/m2
22:08 63.4 °F 51.0 °F 29.90 in ESE 4.0 mph 6.0 mph 64 % 0.00 in 0.00 W/m2
22:13 63.4 °F 51.0 °F 29.90 in Calm   6.0 mph 64 % 0.00 in 0.00 W/m2
22:18 63.4 °F 51.0 °F 29.90 in ESE 6.0 mph 7.0 mph 64 % 0.00 in 0.00 W/m2
22:23 63.3 °F 50.9 °F 29.90 in ESE 1.0 mph 7.0 mph 64 % 0.00 in 0.00 W/m2
22:28 63.3 °F 50.9 °F 29.90 in Calm   8.0 mph 64 % 0.00 in 0.00 W/m2
22:33 63.3 °F 50.5 °F 29.90 in Calm   9.0 mph 63 % 0.00 in 0.00 W/m2
22:38 63.3 °F 50.5 °F 29.90 in Calm   5.0 mph 63 % 0.00 in 0.00 W/m2
22:43 63.2 °F 50.4 °F 29.91 in East 6.0 mph 6.0 mph 63 % 0.00 in 0.00 W/m2
22:48 63.2 °F 50.4 °F 29.91 in East 2.0 mph 5.0 mph 63 % 0.00 in 0.00 W/m2
22:53 63.2 °F 50.4 °F 29.90 in East 6.0 mph 8.0 mph 63 % 0.00 in 0.00 W/m2
22:58 63.1 °F 50.3 °F 29.90 in East 5.0 mph 7.0 mph 63 % 0.00 in 0.00 W/m2
23:03 63.0 °F 50.2 °F 29.90 in East 5.0 mph 9.0 mph 63 % 0.00 in 0.00 W/m2
23:08 63.0 °F 50.2 °F 29.90 in East 5.0 mph 9.0 mph 63 % 0.00 in 0.00 W/m2
23:13 62.9 °F 49.7 °F 29.90 in East 5.0 mph 7.0 mph 62 % 0.00 in 0.00 W/m2
23:18 62.8 °F 49.6 °F 29.90 in ESE 2.0 mph 8.0 mph 62 % 0.00 in 0.00 W/m2
23:23 62.7 °F 49.5 °F 29.90 in ESE 2.0 mph 8.0 mph 62 % 0.00 in 0.00 W/m2
23:28 62.7 °F 49.5 °F 29.90 in East 7.0 mph 8.0 mph 62 % 0.00 in 0.00 W/m2
23:33 62.7 °F 49.5 °F 29.90 in East 5.0 mph 7.0 mph 62 % 0.00 in 0.00 W/m2
23:38 62.7 °F 49.5 °F 29.90 in East 6.0 mph 7.0 mph 62 % 0.00 in 0.00 W/m2
23:43 62.7 °F 49.5 °F 29.90 in Calm   9.0 mph 62 % 0.00 in 0.00 W/m2
23:48 62.6 °F 49.4 °F 29.90 in East 6.0 mph 9.0 mph 62 % 0.00 in 0.00 W/m2
23:53 62.6 °F 49.4 °F 29.90 in East 8.0 mph 8.0 mph 62 % 0.00 in 0.00 W/m2
23:58 62.5 °F 48.9 °F 29.90 in East 5.0 mph 8.0 mph 61 % 0.00 in 0.00 W/m2
Juneau County Weather
Compliments of Weather Underground - 4.5 mb
 WU-history PHP script courtesy of   Juneau County Weather.
powered by Cumulus v1.9.3 (1059)
Ambient Weather VWS v14.00
Top Contact Website Map Copyright © 2007 - 2018 Foresthillweather.com Never base important decisions on this or any weather information obtained from the Internet